Northland, Minnesota
Current Conditions -  °F | °C
As of 2:55 PM on Friday 24 Oct 2014 (Local Time) from KDLH Reporting Station
Few Clouds Few Clouds  
Wind Chill: 69°   Ceiling: Unl
Heat Index: 69°   Visibility: 10mi
Dew Point: 51°   Wind: 13mph
Humidity: 53%   Direction: 250°WSW
Pressure: 29.76"   Gusts: NA
Location:  47.068°N, 92.4547°W
Report Text: KDLH 241955Z 25011KT 10SM FEW120 21/11 A2976 RMK AO2 SLP081 T02060106
Loading
Personal Weather Stations






























Interactive Weather Map
Tropical Storm Tracking
New forecast layout! Learn more

10-Day Weather Forecast

Advertisements
Track Severe Weather on mobile